Time;durP1;ratioP1;P1;durP2;ratioP2;P2;SDS_P1;SDS_P2;PMS_P1;PMS_P2;Temp;Humidity;BMP_temperature;BMP_pressure;BME280_temperature;BME280_humidity;BME280_pressure;Samples;Min_cycle;Max_cycle;Signal;HPM_P1;HPM_P2
2022/01/05 00:00:01;;;;;;;0.77;0.77;;;12.60;99.90;;;;;;5229517;28;20059;-76
2022/01/05 00:02:39;;;;;;;0.80;0.80;;;12.60;99.90;;;;;;5237933;28;20083;-77
2022/01/05 00:05:10;;;;;;;0.63;0.63;;;12.70;99.90;;;;;;5223936;28;20136;-76
2022/01/05 00:07:44;;;;;;;1.02;1.02;;;12.70;99.90;;;;;;5226779;28;20033;-76
2022/01/05 00:10:15;;;;;;;0.70;0.70;;;12.70;99.90;;;;;;5201101;28;20131;-75
2022/01/05 00:12:45;;;;;;;1.05;1.05;;;12.70;99.90;;;;;;5217681;28;20041;-77
2022/01/05 00:15:17;;;;;;;0.75;0.75;;;12.80;99.90;;;;;;5219118;28;20056;-76
2022/01/05 00:17:50;;;;;;;0.70;0.70;;;12.80;99.90;;;;;;5199418;28;20087;-76
2022/01/05 00:20:25;;;;;;;0.80;0.80;;;12.70;99.90;;;;;;5218283;28;20037;-76
2022/01/05 00:22:56;;;;;;;0.80;0.80;;;12.70;99.90;;;;;;5218239;28;20458;-77
2022/01/05 00:25:36;;;;;;;0.80;0.80;;;12.80;99.90;;;;;;5234094;28;20028;-77
2022/01/05 00:28:07;;;;;;;0.80;0.80;;;12.90;99.90;;;;;;5216983;28;20091;-77
2022/01/05 00:30:41;;;;;;;1.17;1.17;;;12.90;99.90;;;;;;5234746;28;20281;-78
2022/01/05 00:33:15;;;;;;;1.17;1.17;;;12.80;99.90;;;;;;5197988;28;20104;-75
2022/01/05 00:35:49;;;;;;;0.85;0.85;;;12.70;99.90;;;;;;5235579;28;20048;-76
2022/01/05 00:38:20;;;;;;;0.80;0.80;;;12.50;99.90;;;;;;5216086;28;20032;-76
2022/01/05 00:40:53;;;;;;;1.25;1.17;;;12.30;99.90;;;;;;5205121;28;20052;-76
2022/01/05 00:43:27;;;;;;;1.00;1.00;;;12.20;99.90;;;;;;5217240;28;20104;-75
2022/01/05 00:45:58;;;;;;;0.80;0.80;;;12.10;99.90;;;;;;5234247;28;20032;-76
2022/01/05 00:48:34;;;;;;;0.85;0.85;;;12.00;99.90;;;;;;5253236;28;20660;-77
2022/01/05 00:51:12;;;;;;;0.80;0.80;;;11.90;99.90;;;;;;5244582;28;20333;-77
2022/01/05 00:53:46;;;;;;;0.88;0.88;;;11.90;99.90;;;;;;5261751;28;20039;-75
2022/01/05 00:56:19;;;;;;;0.90;0.90;;;11.80;99.90;;;;;;5227146;28;20115;-74
2022/01/05 00:58:53;;;;;;;1.00;1.00;;;11.90;99.90;;;;;;5229577;28;20280;-76
2022/01/05 01:01:26;;;;;;;1.02;1.02;;;11.90;99.90;;;;;;5241684;28;20050;-77
2022/01/05 01:03:58;;;;;;;0.70;0.70;;;11.90;99.90;;;;;;5258923;28;20265;-76
2022/01/05 01:06:32;;;;;;;0.90;0.90;;;11.90;99.90;;;;;;5233452;28;20131;-76
2022/01/05 01:09:05;;;;;;;0.80;0.80;;;11.80;99.90;;;;;;5256038;28;20264;-76
2022/01/05 01:11:41;;;;;;;0.90;0.90;;;11.90;99.90;;;;;;5246887;28;20103;-75
2022/01/05 01:14:19;;;;;;;0.80;0.80;;;11.90;99.90;;;;;;5241928;28;20027;-78
2022/01/05 01:16:55;;;;;;;0.93;0.93;;;11.90;99.90;;;;;;5246919;28;20223;-77
2022/01/05 01:19:28;;;;;;;0.80;0.80;;;11.80;99.90;;;;;;5265060;28;20332;-77
2022/01/05 01:22:03;;;;;;;0.80;0.80;;;11.70;99.90;;;;;;5264440;28;20373;-77
2022/01/05 01:24:37;;;;;;;1.20;1.20;;;11.70;99.90;;;;;;5264455;28;20042;-77
2022/01/05 01:27:09;;;;;;;0.75;0.75;;;11.60;99.90;;;;;;5264267;28;20044;-77
2022/01/05 01:29:42;;;;;;;1.00;1.00;;;11.60;99.90;;;;;;5246951;28;20391;-76
2022/01/05 01:32:19;;;;;;;1.30;1.30;;;11.40;99.90;;;;;;5249145;28;20423;-77
2022/01/05 01:34:54;;;;;;;6.55;2.58;;;11.10;99.90;;;;;;5264585;28;20548;-76
2022/01/05 01:37:27;;;;;;;0.80;0.80;;;10.90;99.90;;;;;;5263039;28;20524;-76
2022/01/05 01:40:03;;;;;;;0.82;0.82;;;10.80;99.90;;;;;;5263661;28;20114;-75
2022/01/05 01:42:38;;;;;;;0.63;0.63;;;10.70;99.90;;;;;;5251650;28;20047;-75
2022/01/05 01:45:09;;;;;;;0.85;0.85;;;10.70;99.90;;;;;;5229056;28;20362;-75
2022/01/05 01:47:43;;;;;;;0.73;0.73;;;10.70;99.90;;;;;;5265742;28;20048;-76
2022/01/05 01:50:14;;;;;;;1.45;1.40;;;10.80;99.90;;;;;;5246476;28;20335;-75
2022/01/05 01:52:47;;;;;;;1.98;1.05;;;10.70;99.90;;;;;;5246772;28;20374;-77
2022/01/05 01:55:20;;;;;;;0.60;0.60;;;10.60;99.90;;;;;;5262962;28;20015;-74
2022/01/05 01:57:55;;;;;;;0.75;0.75;;;10.50;99.90;;;;;;5261314;28;20040;-75
2022/01/05 02:00:34;;;;;;;0.80;0.80;;;10.40;99.90;;;;;;5245466;28;20368;-77
2022/01/05 02:03:12;;;;;;;0.70;0.70;;;10.30;99.90;;;;;;5257364;28;20044;-75
2022/01/05 02:05:45;;;;;;;1.00;1.00;;;10.30;99.90;;;;;;5236055;28;20140;-77
2022/01/05 02:08:16;;;;;;;0.60;0.60;;;10.40;99.90;;;;;;5244851;28;20302;-75
2022/01/05 02:10:49;;;;;;;0.60;0.60;;;10.50;99.90;;;;;;5263649;28;20088;-77
2022/01/05 02:13:25;;;;;;;1.45;1.45;;;10.50;99.90;;;;;;5242604;28;20552;-75
2022/01/05 02:15:56;;;;;;;0.70;0.70;;;10.50;99.90;;;;;;5261646;28;20089;-75
2022/01/05 02:21:02;;;;;;;1.27;1.23;;;10.50;99.90;;;;;;5263319;28;20055;-76
2022/01/05 02:23:38;;;;;;;0.65;0.65;;;10.60;99.90;;;;;;5243409;28;20028;-75
2022/01/05 02:26:14;;;;;;;0.45;0.45;;;10.50;99.90;;;;;;5243822;28;20034;-76
2022/01/05 02:28:47;;;;;;;0.85;0.85;;;10.50;99.90;;;;;;5263014;28;20329;-78
2022/01/05 02:31:21;;;;;;;2.00;1.90;;;10.40;99.90;;;;;;5264003;28;20134;-75
2022/01/05 02:33:55;;;;;;;1.05;1.05;;;10.30;99.90;;;;;;5228470;28;20055;-76
2022/01/05 02:36:26;;;;;;;;;;;10.30;99.90;;;;;;5261597;28;20109;-75
2022/01/05 02:39:03;;;;;;;1.30;1.30;;;10.30;99.90;;;;;;5249214;28;19955;-77
2022/01/05 02:41:34;;;;;;;0.88;0.88;;;10.30;99.90;;;;;;5263275;28;20105;-76
2022/01/05 02:44:11;;;;;;;1.00;1.00;;;10.10;99.90;;;;;;5244888;28;20264;-77
2022/01/05 02:46:41;;;;;;;1.35;1.25;;;10.10;99.90;;;;;;5245472;28;20040;-77
2022/01/05 02:49:17;;;;;;;1.08;1.08;;;10.10;99.90;;;;;;5228252;28;20035;-75
2022/01/05 02:51:48;;;;;;;1.65;1.55;;;10.10;99.90;;;;;;5261211;28;20359;-75
2022/01/05 02:54:20;;;;;;;0.55;0.55;;;10.00;99.90;;;;;;5240354;28;20031;-76
2022/01/05 02:56:53;;;;;;;0.60;0.60;;;10.10;99.90;;;;;;5274002;28;20046;-77
2022/01/05 02:59:28;;;;;;;0.75;0.75;;;10.10;99.90;;;;;;5263099;28;20044;-76
2022/01/05 03:02:01;;;;;;;0.82;0.82;;;10.20;99.90;;;;;;5260949;28;20105;-77
2022/01/05 03:04:37;;;;;;;0.77;0.77;;;10.20;99.90;;;;;;5234387;28;20060;-75
2022/01/05 03:07:13;;;;;;;1.30;1.30;;;10.20;99.90;;;;;;5261446;28;20035;-77
2022/01/05 03:09:46;;;;;;;0.88;0.88;;;10.20;99.90;;;;;;5256369;28;20100;-77
2022/01/05 03:12:19;;;;;;;0.93;0.93;;;10.20;99.90;;;;;;5261801;28;20028;-75
2022/01/05 03:15:00;;;;;;;0.85;0.85;;;10.30;99.90;;;;;;5262129;28;20064;-75
2022/01/05 03:17:37;;;;;;;0.70;0.70;;;10.40;99.90;;;;;;5243856;28;20032;-77
2022/01/05 03:20:13;;;;;;;0.80;0.80;;;10.40;99.90;;;;;;5245008;28;20488;-75
2022/01/05 03:22:50;;;;;;;0.80;0.80;;;10.50;99.90;;;;;;5264084;28;20024;-75
2022/01/05 03:25:20;;;;;;;0.80;0.80;;;10.40;99.90;;;;;;5264422;28;20202;-75
2022/01/05 03:27:53;;;;;;;1.17;1.17;;;10.40;99.90;;;;;;5253970;28;20069;-75
2022/01/05 03:30:30;;;;;;;0.90;0.90;;;10.40;99.90;;;;;;5261595;28;20043;-77
2022/01/05 03:33:11;;;;;;;0.77;0.77;;;10.40;99.90;;;;;;5266034;28;20133;-77
2022/01/05 03:35:47;;;;;;;0.80;0.80;;;10.40;99.90;;;;;;5244021;28;20051;-77
2022/01/05 03:38:19;;;;;;;0.70;0.70;;;10.40;99.90;;;;;;5261905;28;20063;-76
2022/01/05 03:40:53;;;;;;;0.80;0.80;;;10.30;99.90;;;;;;5243262;28;20039;-77
2022/01/05 03:43:27;;;;;;;0.88;0.88;;;10.30;99.90;;;;;;5262401;28;20028;-77
2022/01/05 03:46:03;;;;;;;;;;;10.30;99.90;;;;;;5243724;28;20039;-77
2022/01/05 03:48:39;;;;;;;0.80;0.80;;;10.30;99.90;;;;;;5257224;28;19916;-76
2022/01/05 03:51:13;;;;;;;0.85;0.85;;;10.30;99.90;;;;;;5243638;28;20363;-76
2022/01/05 03:53:44;;;;;;;0.60;0.60;;;10.30;99.90;;;;;;5261288;28;20024;-76
2022/01/05 03:56:17;;;;;;;6.35;1.80;;;10.30;99.90;;;;;;5226202;28;20035;-78
2022/01/05 03:58:55;;;;;;;0.80;0.80;;;10.30;99.90;;;;;;5241707;28;20088;-75
2022/01/05 04:01:26;;;;;;;0.68;0.68;;;10.20;99.90;;;;;;5211762;28;20032;-75
2022/01/05 04:04:00;;;;;;;0.55;0.55;;;10.10;99.90;;;;;;5259744;28;21396;-76
2022/01/05 04:06:31;;;;;;;0.80;0.80;;;10.10;99.90;;;;;;5233557;28;20357;-79
2022/01/05 04:09:04;;;;;;;0.70;0.70;;;10.10;99.90;;;;;;5226666;28;20028;-77
2022/01/05 04:11:40;;;;;;;1.00;1.00;;;10.00;99.90;;;;;;5244238;28;20046;-76
2022/01/05 04:14:14;;;;;;;0.90;0.90;;;10.10;99.90;;;;;;5259668;28;20193;-78
2022/01/05 04:16:45;;;;;;;0.88;0.88;;;10.00;99.90;;;;;;5260697;28;20278;-77
2022/01/05 04:19:18;;;;;;;0.70;0.70;;;10.00;99.90;;;;;;5209294;28;20028;-76
2022/01/05 04:21:50;;;;;;;0.70;0.70;;;10.00;99.90;;;;;;5242290;28;20378;-75
2022/01/05 04:24:24;;;;;;;0.80;0.80;;;10.00;99.90;;;;;;5242279;28;20032;-75
2022/01/05 04:26:56;;;;;;;0.70;0.70;;;10.00;99.90;;;;;;5226058;28;20111;-76
2022/01/05 04:29:28;;;;;;;0.80;0.80;;;9.90;99.90;;;;;;5256857;28;20345;-78
2022/01/05 04:32:02;;;;;;;0.68;0.68;;;9.90;99.90;;;;;;5242936;28;20109;-76
2022/01/05 04:34:36;;;;;;;0.90;0.90;;;9.90;99.90;;;;;;5260108;28;20100;-76
2022/01/05 04:37:10;;;;;;;0.98;0.98;;;9.90;99.90;;;;;;5259978;28;20036;-76
2022/01/05 04:39:56;;;;;;;0.90;0.90;;;9.80;99.90;;;;;;5267735;28;20145;-75
2022/01/05 04:42:27;;;;;;;0.80;0.80;;;9.80;99.90;;;;;;5258045;28;20051;-76
2022/01/05 04:44:58;;;;;;;0.80;0.80;;;9.70;99.90;;;;;;5261940;28;20441;-75
2022/01/05 04:47:32;;;;;;;0.70;0.70;;;9.70;99.90;;;;;;5230555;28;20035;-76
2022/01/05 04:50:05;;;;;;;0.90;0.90;;;9.60;99.90;;;;;;5245956;28;20024;-75
2022/01/05 04:52:38;;;;;;;0.73;0.73;;;9.60;99.90;;;;;;5248657;28;20062;-76
2022/01/05 04:55:12;;;;;;;1.35;1.35;;;9.60;99.90;;;;;;5214043;28;20103;-74
2022/01/05 04:57:45;;;;;;;0.80;0.80;;;9.60;99.90;;;;;;5263976;28;20032;-76
2022/01/05 05:00:16;;;;;;;1.00;1.00;;;9.60;99.90;;;;;;5265255;28;20036;-75
2022/01/05 05:02:48;;;;;;;0.73;0.73;;;9.50;99.90;;;;;;5246871;28;20060;-75
2022/01/05 05:05:21;;;;;;;0.90;0.90;;;9.50;99.90;;;;;;5246581;28;20118;-76
2022/01/05 05:08:01;;;;;;;0.60;0.60;;;9.50;99.90;;;;;;5263965;28;20020;-76
2022/01/05 05:10:35;;;;;;;0.90;0.90;;;9.50;99.90;;;;;;5264938;28;20560;-74
2022/01/05 05:13:16;;;;;;;0.90;0.90;;;9.50;99.90;;;;;;5250438;28;20044;-75
2022/01/05 05:15:47;;;;;;;0.80;0.80;;;9.40;99.90;;;;;;5245906;28;20209;-75
2022/01/05 05:18:21;;;;;;;0.82;0.82;;;9.40;99.90;;;;;;5253247;28;20276;-76
2022/01/05 05:20:51;;;;;;;0.80;0.80;;;9.30;99.90;;;;;;5265214;28;20111;-74
2022/01/05 05:23:22;;;;;;;0.70;0.70;;;9.30;99.90;;;;;;5237636;28;20595;-75
2022/01/05 05:25:54;;;;;;;0.77;0.77;;;9.30;99.90;;;;;;5267955;28;20230;-74
2022/01/05 05:28:29;;;;;;;0.73;0.73;;;9.30;99.90;;;;;;5264624;28;20035;-75
2022/01/05 05:31:05;;;;;;;0.65;0.65;;;9.20;99.90;;;;;;5264926;28;20097;-74
2022/01/05 05:33:35;;;;;;;0.98;0.98;;;9.20;99.90;;;;;;5272034;28;20032;-75
2022/01/05 05:36:09;;;;;;;0.80;0.80;;;9.20;99.90;;;;;;5270408;28;20430;-75
2022/01/05 05:38:43;;;;;;;1.08;1.08;;;9.10;99.90;;;;;;5255657;28;20039;-74
2022/01/05 05:41:20;;;;;;;0.88;0.88;;;9.10;99.90;;;;;;5263866;28;20304;-74
2022/01/05 05:43:50;;;;;;;0.80;0.80;;;9.00;99.90;;;;;;5263584;28;20040;-75
2022/01/05 05:46:21;;;;;;;0.80;0.80;;;9.00;99.90;;;;;;5262964;28;20044;-75
2022/01/05 05:48:57;;;;;;;0.90;0.90;;;9.00;99.90;;;;;;5256038;28;20437;-75
2022/01/05 05:51:30;;;;;;;0.95;0.95;;;9.00;99.90;;;;;;5264660;28;20268;-76
2022/01/05 05:54:04;;;;;;;0.60;0.60;;;9.00;99.90;;;;;;5247917;28;20028;-75
2022/01/05 05:56:37;;;;;;;0.77;0.77;;;8.90;99.90;;;;;;5263046;28;20588;-75
2022/01/05 05:59:08;;;;;;;0.90;0.90;;;8.90;99.90;;;;;;5260288;28;20027;-75
2022/01/05 06:01:43;;;;;;;0.80;0.80;;;8.90;99.90;;;;;;5253580;28;20081;-75
2022/01/05 06:04:13;;;;;;;0.60;0.60;;;8.90;99.90;;;;;;5236639;28;20140;-75
2022/01/05 06:06:48;;;;;;;0.82;0.82;;;8.80;99.90;;;;;;5243812;28;20564;-75
2022/01/05 06:09:21;;;;;;;0.90;0.90;;;8.70;99.90;;;;;;5243320;28;20307;-77
2022/01/05 06:11:54;;;;;;;0.70;0.70;;;8.60;99.90;;;;;;5264554;28;20063;-75
2022/01/05 06:14:27;;;;;;;0.63;0.63;;;8.60;99.90;;;;;;5261045;28;20048;-75
2022/01/05 06:16:58;;;;;;;0.80;0.80;;;8.60;99.90;;;;;;5269876;28;20181;-74
2022/01/05 06:19:32;;;;;;;0.73;0.73;;;8.50;99.90;;;;;;5262466;28;20289;-75
2022/01/05 06:22:05;;;;;;;;;;;8.40;99.90;;;;;;5247217;28;20113;-75
2022/01/05 06:24:40;;;;;;;0.55;0.55;;;8.30;99.90;;;;;;5259921;28;19983;-76
2022/01/05 06:27:13;;;;;;;0.80;0.80;;;8.30;99.90;;;;;;5262180;28;20063;-75
2022/01/05 06:29:45;;;;;;;;;;;8.30;99.90;;;;;;5255514;28;20138;-75
2022/01/05 06:32:16;;;;;;;0.70;0.70;;;8.30;99.90;;;;;;5228633;28;19950;-74
2022/01/05 06:34:51;;;;;;;0.73;0.73;;;8.30;99.90;;;;;;5259736;28;20514;-74
2022/01/05 06:37:25;;;;;;;0.60;0.60;;;8.30;99.90;;;;;;5250748;28;20257;-75
2022/01/05 06:39:56;;;;;;;0.80;0.80;;;8.30;99.90;;;;;;5245881;28;20241;-75
2022/01/05 06:42:31;;;;;;;0.70;0.70;;;8.30;99.90;;;;;;5264404;28;20051;-75
2022/01/05 06:45:05;;;;;;;0.70;0.70;;;8.20;99.90;;;;;;5253285;28;20091;-75
2022/01/05 06:47:38;;;;;;;0.73;0.73;;;8.20;99.90;;;;;;5258454;28;20044;-75
2022/01/05 06:50:11;;;;;;;0.82;0.82;;;8.10;99.90;;;;;;5270121;28;20153;-75
2022/01/05 06:52:44;;;;;;;0.80;0.80;;;8.10;99.90;;;;;;5249320;28;20255;-75
2022/01/05 06:55:18;;;;;;;0.50;0.50;;;8.10;99.90;;;;;;5261071;28;20067;-75
2022/01/05 06:57:55;;;;;;;0.47;0.47;;;8.10;99.90;;;;;;5257654;28;20032;-76
2022/01/05 07:00:31;;;;;;;0.52;0.52;;;8.10;99.90;;;;;;5262751;28;20055;-76
2022/01/05 07:03:09;;;;;;;0.45;0.45;;;8.10;99.90;;;;;;5269059;28;20071;-74
2022/01/05 07:05:40;;;;;;;0.75;0.75;;;8.10;99.90;;;;;;5249068;28;20480;-75
2022/01/05 07:08:14;;;;;;;0.90;0.90;;;8.10;99.90;;;;;;5259308;28;20754;-76
2022/01/05 07:10:45;;;;;;;0.63;0.63;;;8.10;99.90;;;;;;5228449;28;20043;-76
2022/01/05 07:13:20;;;;;;;0.80;0.80;;;8.10;99.90;;;;;;5233922;28;21279;-75
2022/01/05 07:15:53;;;;;;;0.60;0.60;;;8.10;99.90;;;;;;5245022;28;20199;-75
2022/01/05 07:18:29;;;;;;;0.50;0.50;;;8.00;99.90;;;;;;5244018;28;20051;-76
2022/01/05 07:21:00;;;;;;;1.08;1.08;;;8.00;99.90;;;;;;5261252;28;20036;-75
2022/01/05 07:23:34;;;;;;;0.70;0.70;;;8.00;99.90;;;;;;5262533;28;20348;-76
2022/01/05 07:26:07;;;;;;;0.98;0.98;;;8.00;99.90;;;;;;5274370;28;20233;-75
2022/01/05 07:28:40;;;;;;;0.40;0.40;;;7.90;99.90;;;;;;5252286;28;20105;-76
2022/01/05 07:31:14;;;;;;;0.73;0.73;;;7.90;99.90;;;;;;5227897;28;20396;-76
2022/01/05 07:33:45;;;;;;;0.65;0.65;;;7.90;99.90;;;;;;5248381;28;20595;-76
2022/01/05 07:36:21;;;;;;;0.80;0.80;;;7.90;99.90;;;;;;5244781;28;20036;-76
2022/01/05 07:38:52;;;;;;;0.65;0.65;;;7.90;99.90;;;;;;5260327;28;20222;-74
2022/01/05 07:41:25;;;;;;;0.80;0.80;;;7.80;99.90;;;;;;5263656;28;20046;-75
2022/01/05 07:43:56;;;;;;;0.80;0.80;;;7.80;99.90;;;;;;5244205;28;20495;-75
2022/01/05 07:46:30;;;;;;;0.70;0.70;;;7.80;99.90;;;;;;5236899;28;20040;-74
2022/01/05 07:49:05;;;;;;;0.80;0.80;;;7.70;99.90;;;;;;5255903;28;20024;-76
2022/01/05 07:51:36;;;;;;;0.77;0.77;;;7.70;99.90;;;;;;5262442;28;20114;-78
2022/01/05 07:54:12;;;;;;;0.70;0.70;;;7.70;99.90;;;;;;5244217;28;20522;-76
2022/01/05 07:56:45;;;;;;;0.70;0.70;;;7.70;99.90;;;;;;5226851;28;20028;-77
2022/01/05 07:59:22;;;;;;;0.75;0.75;;;7.70;99.90;;;;;;5243474;28;20099;-75
2022/01/05 08:01:56;;;;;;;0.80;0.80;;;7.70;99.90;;;;;;5244045;28;20230;-75
2022/01/05 08:04:32;;;;;;;;;;;7.70;99.90;;;;;;5253008;28;20504;-75
2022/01/05 08:07:11;;;;;;;0.80;0.80;;;7.70;99.90;;;;;;5263393;28;19912;-76
2022/01/05 08:09:45;;;;;;;0.80;0.80;;;7.60;99.90;;;;;;5225423;28;20217;-76
2022/01/05 08:12:16;;;;;;;0.80;0.80;;;7.60;99.90;;;;;;5233925;28;20028;-78
2022/01/05 08:14:47;;;;;;;0.80;0.80;;;7.60;99.90;;;;;;5236857;28;20048;-76
2022/01/05 08:17:20;;;;;;;0.80;0.80;;;7.60;99.90;;;;;;5246869;28;20332;-76
2022/01/05 08:19:56;;;;;;;0.70;0.70;;;7.50;99.90;;;;;;5264978;28;20028;-76
2022/01/05 08:22:30;;;;;;;0.90;0.90;;;7.50;99.90;;;;;;5264908;28;20047;-77
2022/01/05 08:25:04;;;;;;;0.70;0.70;;;7.50;99.90;;;;;;5263115;28;20035;-77
2022/01/05 08:27:35;;;;;;;0.93;0.93;;;7.40;99.90;;;;;;5258258;28;20289;-75
2022/01/05 08:30:08;;;;;;;0.70;0.70;;;7.40;99.90;;;;;;5245708;28;20349;-75
2022/01/05 08:32:39;;;;;;;0.70;0.70;;;7.40;99.90;;;;;;5256967;28;20107;-76
2022/01/05 08:35:17;;;;;;;0.70;0.70;;;7.40;99.90;;;;;;5241346;28;20436;-75
2022/01/05 08:37:49;;;;;;;0.60;0.60;;;7.30;99.90;;;;;;5252616;28;20408;-76
2022/01/05 08:40:23;;;;;;;0.88;0.88;;;7.30;99.90;;;;;;5244240;28;20031;-75
2022/01/05 08:42:56;;;;;;;1.00;1.00;;;7.30;99.90;;;;;;5260014;28;20055;-75
2022/01/05 08:45:27;;;;;;;0.70;0.70;;;7.40;99.90;;;;;;5244939;28;20035;-77
2022/01/05 08:47:59;;;;;;;0.85;0.85;;;7.40;99.90;;;;;;5275610;28;20024;-76
2022/01/05 08:50:36;;;;;;;0.88;0.88;;;7.30;99.90;;;;;;5278044;28;20039;-76
2022/01/05 08:53:10;;;;;;;0.70;0.70;;;7.30;99.90;;;;;;5255223;28;20020;-75
2022/01/05 08:55:48;;;;;;;0.80;0.80;;;7.30;99.90;;;;;;5263775;28;20039;-77
2022/01/05 08:58:21;;;;;;;0.73;0.73;;;7.30;99.90;;;;;;5240407;28;20039;-74
2022/01/05 09:00:55;;;;;;;0.90;0.90;;;7.10;99.90;;;;;;5264802;28;20532;-75
2022/01/05 09:03:27;;;;;;;0.90;0.90;;;7.10;99.90;;;;;;5256847;28;20374;-75
2022/01/05 09:06:00;;;;;;;0.57;0.57;;;6.90;99.90;;;;;;5263191;27;20054;-75
2022/01/05 09:08:30;;;;;;;0.43;0.43;;;6.80;99.90;;;;;;5246905;28;20535;-74
2022/01/05 09:11:02;;;;;;;0.70;0.70;;;6.60;99.90;;;;;;5283252;27;20024;-73
2022/01/05 09:13:38;;;;;;;0.60;0.60;;;6.50;99.90;;;;;;5283931;28;20032;-74
2022/01/05 09:16:10;;;;;;;0.70;0.70;;;6.50;99.90;;;;;;5267800;28;20295;-74
2022/01/05 09:18:48;;;;;;;0.60;0.60;;;6.40;99.90;;;;;;5267278;28;20476;-73
2022/01/05 09:21:24;;;;;;;0.60;0.60;;;6.30;99.90;;;;;;5249832;28;20026;-74
2022/01/05 09:24:00;;;;;;;0.50;0.50;;;6.20;99.90;;;;;;5267910;28;20031;-74
2022/01/05 09:26:33;;;;;;;0.60;0.60;;;6.10;99.90;;;;;;5275250;28;20329;-75
2022/01/05 09:29:09;;;;;;;0.50;0.50;;;6.10;99.90;;;;;;5286683;27;20043;-74
2022/01/05 09:31:43;;;;;;;0.50;0.50;;;6.10;99.90;;;;;;5284389;28;20342;-74
2022/01/05 09:34:16;;;;;;;0.52;0.52;;;6.10;99.90;;;;;;5264380;28;20480;-74
2022/01/05 09:36:57;;;;;;;0.90;0.90;;;6.10;99.90;;;;;;5249234;28;20282;-75
2022/01/05 09:42:22;;;;;;;0.70;0.70;;;6.10;99.90;;;;;;5255954;28;20035;-75
2022/01/05 09:44:53;;;;;;;0.70;0.70;;;6.20;99.90;;;;;;5250794;28;20047;-75
2022/01/05 09:47:37;;;;;;;0.80;0.80;;;6.20;99.90;;;;;;5267940;28;20209;-75
2022/01/05 09:50:12;;;;;;;0.60;0.60;;;6.20;99.90;;;;;;5267942;28;20087;-75
2022/01/05 09:52:50;;;;;;;0.70;0.70;;;6.30;99.90;;;;;;5250326;28;20129;-75
2022/01/05 09:55:23;;;;;;;0.80;0.80;;;6.30;99.90;;;;;;5249898;28;20031;-75
2022/01/05 09:57:55;;;;;;;0.80;0.80;;;6.30;99.90;;;;;;5301104;27;20096;-75
2022/01/05 10:00:26;;;;;;;0.60;0.60;;;6.30;99.90;;;;;;5262305;27;20196;-75
2022/01/05 10:02:59;;;;;;;0.70;0.70;;;6.40;99.90;;;;;;5265395;27;20433;-75
2022/01/05 10:05:30;;;;;;;0.63;0.63;;;6.50;99.90;;;;;;5266199;27;20116;-75
2022/01/05 10:08:06;;;;;;;0.60;0.60;;;6.50;99.90;;;;;;5273902;27;20316;-75
2022/01/05 10:10:40;;;;;;;1.95;1.20;;;6.60;99.90;;;;;;5246983;28;20042;-75
2022/01/05 10:13:14;;;;;;;0.43;0.43;;;6.60;99.90;;;;;;5279479;28;20035;-75
2022/01/05 10:15:45;;;;;;;0.63;0.63;;;6.70;99.90;;;;;;5246167;28;20142;-75
2022/01/05 10:18:19;;;;;;;0.70;0.70;;;6.80;99.90;;;;;;5262149;28;20028;-75
2022/01/05 10:21:05;;;;;;;0.90;0.90;;;6.80;99.90;;;;;;5262405;28;20482;-75
2022/01/05 10:23:51;;;;;;;0.80;0.80;;;6.90;99.90;;;;;;5244914;28;20035;-75
2022/01/05 10:26:41;;;;;;;0.75;0.75;;;6.90;99.90;;;;;;5254356;28;20486;-75
2022/01/05 10:29:20;;;;;;;0.75;0.75;;;6.90;99.90;;;;;;5256298;28;20065;-75
2022/01/05 10:32:04;;;;;;;0.55;0.55;;;7.00;99.90;;;;;;5271241;27;20093;-75
2022/01/05 10:34:36;;;;;;;0.88;0.88;;;6.90;99.90;;;;;;5238384;28;20095;-75
2022/01/05 10:37:10;;;;;;;0.70;0.70;;;6.90;99.90;;;;;;5273479;28;20044;-74
2022/01/05 10:39:43;;;;;;;0.95;0.95;;;7.00;99.90;;;;;;5273762;28;20065;-75
2022/01/05 10:42:14;;;;;;;0.70;0.70;;;7.00;99.90;;;;;;5257083;28;20100;-75
2022/01/05 10:44:51;;;;;;;0.70;0.70;;;7.00;99.90;;;;;;5256519;28;20039;-74
2022/01/05 10:47:22;;;;;;;1.10;1.10;;;7.00;99.90;;;;;;5243687;28;20051;-74
2022/01/05 10:49:54;;;;;;;0.57;0.57;;;7.10;99.90;;;;;;5291002;27;20040;-76
2022/01/05 10:52:34;;;;;;;0.90;0.90;;;7.10;99.90;;;;;;5225628;28;20035;-74
2022/01/05 10:55:12;;;;;;;0.70;0.70;;;7.10;99.90;;;;;;5238641;28;20552;-74
2022/01/05 10:58:01;;;;;;;0.60;0.60;;;7.20;99.90;;;;;;5241821;28;20509;-74
2022/01/05 11:00:37;;;;;;;0.73;0.73;;;7.30;99.90;;;;;;5253593;28;20040;-75
2022/01/05 11:03:30;;;;;;;0.80;0.80;;;7.30;99.90;;;;;;5237701;28;20028;-74
2022/01/05 11:06:16;;;;;;;0.70;0.70;;;7.20;99.90;;;;;;5269542;27;20051;-74
2022/01/05 11:09:04;;;;;;;0.80;0.80;;;7.30;99.90;;;;;;5255396;28;20113;-76
2022/01/05 11:11:50;;;;;;;0.70;0.70;;;7.30;99.90;;;;;;5256505;28;20039;-74
2022/01/05 11:14:31;;;;;;;0.70;0.70;;;7.30;99.90;;;;;;5255963;28;20036;-75
2022/01/05 11:17:09;;;;;;;0.88;0.88;;;7.30;99.90;;;;;;5255450;28;20040;-74
2022/01/05 11:19:40;;;;;;;0.88;0.88;;;7.30;99.90;;;;;;5256297;28;20074;-74
2022/01/05 11:22:18;;;;;;;0.70;0.70;;;7.30;99.90;;;;;;5250635;28;20040;-75
2022/01/05 11:24:52;;;;;;;0.70;0.70;;;7.20;99.90;;;;;;5269822;28;20035;-75
2022/01/05 11:27:29;;;;;;;0.85;0.85;;;7.20;99.90;;;;;;5249647;28;20035;-76
2022/01/05 11:30:00;;;;;;;0.70;0.70;;;7.20;99.90;;;;;;5238646;28;20040;-75
2022/01/05 11:32:35;;;;;;;0.80;0.80;;;7.20;99.90;;;;;;5254291;28;20058;-75
2022/01/05 11:35:09;;;;;;;0.68;0.68;;;7.10;99.90;;;;;;5293324;27;20032;-75
2022/01/05 11:37:47;;;;;;;1.08;1.08;;;7.10;99.90;;;;;;5258526;28;20078;-74
2022/01/05 11:40:19;;;;;;;0.75;0.75;;;7.00;99.90;;;;;;5255254;28;20036;-74
2022/01/05 11:43:05;;;;;;;0.90;0.90;;;7.00;99.90;;;;;;5272657;28;20059;-75
2022/01/05 11:45:47;;;;;;;0.60;0.60;;;7.10;99.90;;;;;;5242848;28;20056;-74
2022/01/05 11:48:29;;;;;;;0.70;0.70;;;7.10;99.90;;;;;;5233125;28;20035;-75
2022/01/05 11:51:03;;;;;;;0.68;0.68;;;7.10;99.90;;;;;;5231777;28;20048;-75
2022/01/05 11:53:48;;;;;;;0.90;0.90;;;7.00;99.90;;;;;;5233818;28;20032;-75
2022/01/05 11:56:21;;;;;;;0.82;0.82;;;6.90;99.90;;;;;;5232142;28;20037;-75
2022/01/05 11:58:56;;;;;;;0.88;0.88;;;6.90;99.90;;;;;;5232887;28;20036;-74
2022/01/05 12:01:34;;;;;;;0.70;0.70;;;6.90;99.90;;;;;;5234348;28;20430;-75
2022/01/05 12:04:11;;;;;;;0.63;0.63;;;6.90;99.90;;;;;;5232629;28;20327;-75
2022/01/05 12:06:46;;;;;;;0.75;0.75;;;6.80;99.90;;;;;;5180762;28;20060;-76
2022/01/05 12:09:29;;;;;;;0.65;0.65;;;6.80;99.90;;;;;;5232413;28;20036;-76
2022/01/05 12:12:24;;;;;;;0.63;0.63;;;6.80;99.90;;;;;;5210431;28;20045;-76
2022/01/05 12:14:56;;;;;;;0.85;0.85;;;6.80;99.90;;;;;;5215320;28;20266;-76
2022/01/05 12:17:30;;;;;;;0.60;0.60;;;6.80;99.90;;;;;;5233155;28;20444;-76
2022/01/05 12:20:05;;;;;;;0.93;0.93;;;6.90;99.90;;;;;;5233658;28;20037;-76
2022/01/05 12:22:39;;;;;;;0.70;0.70;;;6.90;99.90;;;;;;5216856;28;20451;-76
2022/01/05 12:25:16;;;;;;;0.70;0.70;;;6.90;99.90;;;;;;5226899;28;20036;-75
2022/01/05 12:27:53;;;;;;;0.45;0.45;;;6.90;99.90;;;;;;5231448;28;20036;-76
2022/01/05 12:30:30;;;;;;;0.50;0.50;;;6.90;99.90;;;;;;5233686;28;20047;-76
2022/01/05 12:33:10;;;;;;;0.70;0.70;;;6.90;99.90;;;;;;5234315;28;20483;-76
2022/01/05 12:35:52;;;;;;;0.90;0.90;;;6.90;99.90;;;;;;5222116;28;20044;-76
2022/01/05 12:39:00;;;;;;;0.80;0.80;;;7.00;99.90;;;;;;5231812;28;20040;-75
2022/01/05 12:41:37;;;;;;;0.80;0.80;;;6.90;99.90;;;;;;5232329;28;20033;-75
2022/01/05 12:44:22;;;;;;;0.63;0.63;;;7.00;99.90;;;;;;5216888;28;20472;-76
2022/01/05 12:46:58;;;;;;;0.65;0.65;;;6.90;99.90;;;;;;5243190;28;20197;-75
2022/01/05 12:49:33;;;;;;;0.70;0.70;;;7.00;99.90;;;;;;5270549;28;20035;-75
2022/01/05 12:52:16;;;;;;;0.98;0.98;;;7.00;99.90;;;;;;5279115;28;20388;-76
2022/01/05 12:54:59;;;;;;;0.55;0.55;;;7.00;99.90;;;;;;5260755;28;21018;-75
2022/01/05 12:57:30;;;;;;;0.80;0.80;;;6.90;99.90;;;;;;5254092;28;20027;-74
2022/01/05 13:00:04;;;;;;;0.80;0.80;;;6.90;99.90;;;;;;5275520;28;20051;-73
2022/01/05 13:02:38;;;;;;;;;;;6.90;99.90;;;;;;5278772;28;20051;-76
2022/01/05 13:05:09;;;;;;;0.80;0.80;;;6.90;99.90;;;;;;5268505;27;19929;-74
2022/01/05 13:07:41;;;;;;;0.77;0.77;;;6.90;99.90;;;;;;5258909;28;20035;-76
2022/01/05 13:10:21;;;;;;;0.70;0.70;;;6.90;99.90;;;;;;5267700;28;20277;-74
2022/01/05 13:12:56;;;;;;;0.75;0.75;;;6.90;99.90;;;;;;5263833;28;20032;-74
2022/01/05 13:15:27;;;;;;;0.70;0.70;;;6.90;99.90;;;;;;5257095;28;20016;-74
2022/01/05 13:18:01;;;;;;;0.80;0.80;;;6.90;99.90;;;;;;5257974;28;20063;-73
2022/01/05 13:20:32;;;;;;;0.70;0.70;;;7.00;99.90;;;;;;5259157;28;20043;-74
2022/01/05 13:23:06;;;;;;;0.52;0.52;;;7.00;99.90;;;;;;5259063;28;20370;-76
2022/01/05 13:25:39;;;;;;;;;;;7.00;99.90;;;;;;5276344;27;20099;-74
2022/01/05 13:28:14;;;;;;;0.90;0.90;;;7.00;99.90;;;;;;5289203;27;20232;-75
2022/01/05 13:30:48;;;;;;;0.80;0.80;;;7.00;99.90;;;;;;5258178;28;20070;-76
2022/01/05 13:33:22;;;;;;;0.80;0.80;;;7.00;99.90;;;;;;5241807;28;20493;-74
2022/01/05 13:35:54;;;;;;;0.77;0.77;;;7.00;99.90;;;;;;5255713;28;20090;-74
2022/01/05 13:38:25;;;;;;;0.57;0.57;;;7.00;99.90;;;;;;5257105;28;20246;-74